createdAt,value
2022-11-03T06:51:16.591Z,2.60
2022-11-03T06:53:47.908Z,2.90
2022-11-03T06:56:16.894Z,2.90
2022-11-03T06:58:44.615Z,2.78
2022-11-03T07:01:23.283Z,3.10
2022-11-03T07:03:52.752Z,2.95
2022-11-03T07:06:24.737Z,3.00
2022-11-03T07:08:54.490Z,3.22
2022-11-03T07:11:25.757Z,3.00
2022-11-03T07:13:54.253Z,2.90
2022-11-03T07:16:32.541Z,3.00
2022-11-03T07:19:04.009Z,2.90
2022-11-03T07:21:33.564Z,2.90
2022-11-03T07:24:01.323Z,3.27
2022-11-03T07:26:28.419Z,3.17
2022-11-03T07:28:55.984Z,2.97
2022-11-03T07:31:24.253Z,3.00
2022-11-03T07:33:56.308Z,3.03
2022-11-03T07:36:24.744Z,2.83
2022-11-03T07:38:53.196Z,3.00
2022-11-03T07:41:21.556Z,2.93
2022-11-03T07:43:52.693Z,3.40
2022-11-03T07:46:21.556Z,3.13
2022-11-03T07:48:49.576Z,3.53
2022-11-03T07:51:21.426Z,3.13
2022-11-03T07:53:49.637Z,3.15
2022-11-03T07:56:36.556Z,3.10
2022-11-03T07:59:26.798Z,3.33
2022-11-03T08:01:58.770Z,3.20
2022-11-03T08:04:30.946Z,3.10
2022-11-03T08:06:58.088Z,3.20
2022-11-03T08:09:25.098Z,2.90
2022-11-03T08:11:52.458Z,3.10
2022-11-03T08:14:19.526Z,2.50
2022-11-03T08:16:46.580Z,2.50
2022-11-03T08:19:13.702Z,2.38
2022-11-03T08:21:40.707Z,2.20
2022-11-03T08:24:07.726Z,2.15
2022-11-03T08:26:34.761Z,1.80
2022-11-03T08:29:01.950Z,1.70
2022-11-03T08:31:29.304Z,1.60
2022-11-03T08:33:56.432Z,1.70
2022-11-03T08:36:23.415Z,1.60
2022-11-03T08:38:50.774Z,1.77
2022-11-03T08:41:17.769Z,1.63
2022-11-03T08:43:45.946Z,1.80
2022-11-03T08:46:17.779Z,1.67
2022-11-03T08:48:46.204Z,1.60
2022-11-03T08:51:14.419Z,1.77
2022-11-03T08:53:42.752Z,1.90
2022-11-03T08:56:12.952Z,1.92
2022-11-03T08:58:41.489Z,2.03
2022-11-03T09:01:08.474Z,2.13
2022-11-03T09:03:35.653Z,1.85
2022-11-03T09:06:02.709Z,1.83
2022-11-03T09:11:17.048Z,2.08
2022-11-03T09:13:46.493Z,1.85
2022-11-03T09:16:13.610Z,1.90
2022-11-03T09:18:41.327Z,2.00
2022-11-03T09:21:08.858Z,2.20
2022-11-03T09:23:35.930Z,2.17
2022-11-03T09:26:03.079Z,2.45
2022-11-03T09:28:30.105Z,2.28
2022-11-03T09:30:57.308Z,2.50
2022-11-03T09:33:24.344Z,2.50
2022-11-03T09:35:51.351Z,2.30
2022-11-03T09:38:18.506Z,2.50
2022-11-03T09:40:45.684Z,2.40
2022-11-03T09:43:12.878Z,2.40
2022-11-03T09:45:40.055Z,2.45
2022-11-03T09:48:10.782Z,2.30
2022-11-03T09:50:38.020Z,2.63
2022-11-03T09:53:05.328Z,2.58
2022-11-03T09:55:32.696Z,2.33
2022-11-03T09:58:00.993Z,2.00
2022-11-03T10:00:29.602Z,1.90
2022-11-03T10:02:56.823Z,2.47
2022-11-03T10:05:25.534Z,2.05
2022-11-03T10:07:58.707Z,1.80
2022-11-03T10:10:26.141Z,1.80
2022-11-03T10:12:53.503Z,2.00
2022-11-03T10:15:23.518Z,2.13
2022-11-03T10:17:51.714Z,2.10
2022-11-03T10:20:23.858Z,1.95
2022-11-03T10:22:54.411Z,2.15
2022-11-03T10:25:40.953Z,1.80
2022-11-03T10:28:29.545Z,2.08
2022-11-03T10:31:15.984Z,2.00
2022-11-03T10:33:52.078Z,2.70
2022-11-03T10:36:19.233Z,2.22
2022-11-03T10:38:47.704Z,2.88
2022-11-03T10:41:16.048Z,2.33
2022-11-03T10:43:44.507Z,2.40
2022-11-03T10:46:36.719Z,2.47
2022-11-03T10:49:11.185Z,2.30
2022-11-03T10:51:38.555Z,2.40
2022-11-03T10:54:06.533Z,2.10
2022-11-03T10:56:33.886Z,2.15
2022-11-03T10:59:01.456Z,2.70
2022-11-03T11:01:28.650Z,2.38
2022-11-03T11:03:56.131Z,2.45
2022-11-03T11:06:30.694Z,2.50
2022-11-03T11:09:01.826Z,2.30
2022-11-03T11:11:29.558Z,2.40
2022-11-03T11:14:15.544Z,2.53
2022-11-03T11:16:57.908Z,2.60
2022-11-03T11:19:26.216Z,2.50
2022-11-03T11:21:53.656Z,2.30
2022-11-03T11:24:39.695Z,2.25
2022-11-03T11:27:26.934Z,2.17
2022-11-03T11:29:54.024Z,2.47
2022-11-03T11:32:39.718Z,2.30
2022-11-03T11:35:10.645Z,2.33
2022-11-03T11:37:38.539Z,2.42
2022-11-03T11:40:23.974Z,2.28
2022-11-03T11:43:06.426Z,2.38
2022-11-03T11:45:52.557Z,2.10
2022-11-03T11:48:19.580Z,1.80
2022-11-03T11:50:46.934Z,1.77
2022-11-03T11:53:14.826Z,1.47
2022-11-03T11:55:47.490Z,1.58
2022-11-03T11:58:16.565Z,1.50
2022-11-03T12:00:57.705Z,1.23
2022-11-03T12:03:27.231Z,0.80
2022-11-03T12:05:54.337Z,0.82
2022-11-03T12:08:21.690Z,0.80
2022-11-03T12:11:10.039Z,1.05
2022-11-03T12:13:50.346Z,0.90
2022-11-03T12:16:28.234Z,0.80
2022-11-03T12:18:56.777Z,1.30
2022-11-03T12:21:42.880Z,1.25
2022-11-03T12:24:36.305Z,1.20
2022-11-03T12:27:05.380Z,1.30
2022-11-03T12:29:32.509Z,1.27
2022-11-03T12:31:59.600Z,1.60
2022-11-03T12:34:26.624Z,1.50
2022-11-03T12:36:56.369Z,1.30
2022-11-03T12:39:23.506Z,1.50
2022-11-03T12:41:50.563Z,1.45
2022-11-03T12:44:17.648Z,1.50
2022-11-03T12:46:44.720Z,1.77
2022-11-03T12:49:12.291Z,1.70
2022-11-03T12:51:39.380Z,1.80
2022-11-03T12:54:06.418Z,2.00
2022-11-03T12:56:33.452Z,1.80
2022-11-03T12:59:00.463Z,1.90
2022-11-03T13:01:27.605Z,1.83
2022-11-03T13:03:54.818Z,2.00
2022-11-03T13:06:21.918Z,2.10
2022-11-03T13:08:53.118Z,2.05
2022-11-03T13:11:39.108Z,2.20
2022-11-03T13:14:06.379Z,2.67
2022-11-03T13:16:33.464Z,2.28
2022-11-03T13:19:00.484Z,2.30
2022-11-03T13:21:27.675Z,1.90
2022-11-03T13:23:56.269Z,2.38
2022-11-03T13:26:23.295Z,2.50
2022-11-03T13:28:50.275Z,2.33
2022-11-03T13:31:17.283Z,2.37
2022-11-03T13:33:44.568Z,2.50
2022-11-03T13:36:11.841Z,2.53
2022-11-03T13:38:39.078Z,2.15
2022-11-03T13:41:09.094Z,2.33
2022-11-03T13:43:36.516Z,2.30
2022-11-03T13:46:04.890Z,2.30
2022-11-03T13:51:19.174Z,3.50
